sensor_id;sensor_type;location;lat;lon;timestamp;noise_LAeq;noise_LA_min;noise_LA_max;noise_LA01;noise_LA95
76261;Laerm;65076;52.362;6.588;2023-10-08T00:07:36;35.68;33.21;44.78;;
76261;Laerm;65076;52.362;6.588;2023-10-08T00:17:52;35.25;32.16;53.38;;
76261;Laerm;65076;52.362;6.588;2023-10-08T00:25:35;36.76;33.16;45.33;;
76261;Laerm;65076;52.362;6.588;2023-10-08T00:30:41;40.75;32.30;56.40;;
76261;Laerm;65076;52.362;6.588;2023-10-08T00:33:20;34.98;32.76;46.15;;
76261;Laerm;65076;52.362;6.588;2023-10-08T00:38:25;36.12;32.19;48.97;;
76261;Laerm;65076;52.362;6.588;2023-10-08T00:43:36;34.28;32.08;37.54;;
76261;Laerm;65076;52.362;6.588;2023-10-08T00:51:21;46.19;32.42;62.15;;
76261;Laerm;65076;52.362;6.588;2023-10-08T00:59:19;34.31;31.72;37.96;;
76261;Laerm;65076;52.362;6.588;2023-10-08T01:06:57;34.75;32.31;38.59;;
76261;Laerm;65076;52.362;6.588;2023-10-08T01:12:15;40.04;33.64;48.53;;
76261;Laerm;65076;52.362;6.588;2023-10-08T01:19:56;39.11;36.31;47.25;;
76261;Laerm;65076;52.362;6.588;2023-10-08T01:27:43;43.48;39.70;51.48;;
76261;Laerm;65076;52.362;6.588;2023-10-08T01:37:51;40.82;36.35;47.64;;
76261;Laerm;65076;52.362;6.588;2023-10-08T01:47:57;47.67;35.32;64.26;;
76261;Laerm;65076;52.362;6.588;2023-10-08T01:55:25;37.69;35.14;44.76;;
76261;Laerm;65076;52.362;6.588;2023-10-08T01:58:01;37.01;33.98;49.36;;
76261;Laerm;65076;52.362;6.588;2023-10-08T02:00:37;38.86;35.69;51.87;;
76261;Laerm;65076;52.362;6.588;2023-10-08T02:10:44;36.36;33.36;40.38;;
76261;Laerm;65076;52.362;6.588;2023-10-08T02:23:12;40.50;36.64;51.35;;
76261;Laerm;65076;52.362;6.588;2023-10-08T02:33:19;37.46;34.89;40.80;;
76261;Laerm;65076;52.362;6.588;2023-10-08T02:38:23;36.30;33.49;40.14;;
76261;Laerm;65076;52.362;6.588;2023-10-08T02:46:00;34.85;32.96;37.15;;
76261;Laerm;65076;52.362;6.588;2023-10-08T02:58:43;35.97;32.12;40.79;;
76261;Laerm;65076;52.362;6.588;2023-10-08T03:01:20;44.91;33.58;60.74;;
76261;Laerm;65076;52.362;6.588;2023-10-08T03:03:54;35.20;33.18;40.95;;
76261;Laerm;65076;52.362;6.588;2023-10-08T03:11:37;34.85;33.13;37.58;;
76261;Laerm;65076;52.362;6.588;2023-10-08T03:16:52;35.12;33.58;42.17;;
76261;Laerm;65076;52.362;6.588;2023-10-08T03:29:33;35.01;33.27;37.64;;
76261;Laerm;65076;52.362;6.588;2023-10-08T03:34:43;34.57;32.99;37.45;;
76261;Laerm;65076;52.362;6.588;2023-10-08T03:39:50;34.80;32.62;37.75;;
76261;Laerm;65076;52.362;6.588;2023-10-08T03:42:49;34.71;32.57;40.35;;
76261;Laerm;65076;52.362;6.588;2023-10-08T03:50:40;34.65;32.56;37.31;;
76261;Laerm;65076;52.362;6.588;2023-10-08T03:58:21;35.77;32.61;43.18;;
76261;Laerm;65076;52.362;6.588;2023-10-08T04:03:34;34.59;32.60;37.57;;
76261;Laerm;65076;52.362;6.588;2023-10-08T04:11:29;34.68;32.57;40.04;;
76261;Laerm;65076;52.362;6.588;2023-10-08T04:16:35;34.49;32.53;36.80;;
76261;Laerm;65076;52.362;6.588;2023-10-08T04:24:17;36.25;32.19;47.73;;
76261;Laerm;65076;52.362;6.588;2023-10-08T04:29:24;34.25;32.82;39.92;;
76261;Laerm;65076;52.362;6.588;2023-10-08T04:34:30;37.75;32.10;53.84;;
76261;Laerm;65076;52.362;6.588;2023-10-08T04:37:04;35.00;32.09;45.35;;
76261;Laerm;65076;52.362;6.588;2023-10-08T04:42:22;39.09;35.93;49.67;;
76261;Laerm;65076;52.362;6.588;2023-10-08T04:49:59;38.17;33.38;47.89;;
76261;Laerm;65076;52.362;6.588;2023-10-08T04:55:02;39.35;33.44;52.60;;
76261;Laerm;65076;52.362;6.588;2023-10-08T04:57:44;35.59;32.81;46.55;;
76261;Laerm;65076;52.362;6.588;2023-10-08T05:05:26;37.29;33.52;52.97;;
76261;Laerm;65076;52.362;6.588;2023-10-08T05:15:52;39.72;33.17;53.62;;
76261;Laerm;65076;52.362;6.588;2023-10-08T05:18:44;44.75;33.59;61.64;;
76261;Laerm;65076;52.362;6.588;2023-10-08T05:26:55;36.24;33.27;48.06;;
76261;Laerm;65076;52.362;6.588;2023-10-08T05:34:51;47.80;33.79;63.98;;
76261;Laerm;65076;52.362;6.588;2023-10-08T05:40:13;37.04;33.56;52.10;;
76261;Laerm;65076;52.362;6.588;2023-10-08T05:43:17;47.59;34.58;63.17;;
76261;Laerm;65076;52.362;6.588;2023-10-08T05:48:30;50.33;34.24;69.55;;
76261;Laerm;65076;52.362;6.588;2023-10-08T05:51:16;44.72;33.76;60.68;;
76261;Laerm;65076;52.362;6.588;2023-10-08T06:01:53;42.20;33.86;53.59;;
76261;Laerm;65076;52.362;6.588;2023-10-08T06:09:51;59.98;34.36;75.50;;
76261;Laerm;65076;52.362;6.588;2023-10-08T06:15:09;50.84;34.33;72.27;;
76261;Laerm;65076;52.362;6.588;2023-10-08T06:17:44;40.82;34.46;55.50;;
76261;Laerm;65076;52.362;6.588;2023-10-08T06:28:07;53.94;34.26;69.33;;
76261;Laerm;65076;52.362;6.588;2023-10-08T06:33:17;41.36;34.96;55.32;;
76261;Laerm;65076;52.362;6.588;2023-10-08T06:38:23;62.03;35.02;75.45;;
76261;Laerm;65076;52.362;6.588;2023-10-08T06:43:24;40.63;34.36;50.17;;
76261;Laerm;65076;52.362;6.588;2023-10-08T06:45:58;64.88;34.76;76.53;;
76261;Laerm;65076;52.362;6.588;2023-10-08T06:53:41;53.97;34.97;73.24;;
76261;Laerm;65076;52.362;6.588;2023-10-08T06:58:52;51.43;37.92;65.10;;
76261;Laerm;65076;52.362;6.588;2023-10-08T07:06:31;47.74;34.52;62.09;;
76261;Laerm;65076;52.362;6.588;2023-10-08T07:11:46;56.38;35.67;75.17;;
76261;Laerm;65076;52.362;6.588;2023-10-08T07:16:48;56.67;40.50;73.25;;
76261;Laerm;65076;52.362;6.588;2023-10-08T07:19:23;64.63;36.74;75.46;;
76261;Laerm;65076;52.362;6.588;2023-10-08T07:27:06;50.10;35.84;61.84;;
76261;Laerm;65076;52.362;6.588;2023-10-08T07:32:08;54.84;35.21;66.27;;
76261;Laerm;65076;52.362;6.588;2023-10-08T07:34:41;51.53;34.59;69.11;;
76261;Laerm;65076;52.362;6.588;2023-10-08T07:42:20;57.27;36.23;72.18;;
76261;Laerm;65076;52.362;6.588;2023-10-08T07:47:20;66.17;38.13;77.50;;
76261;Laerm;65076;52.362;6.588;2023-10-08T07:49:53;53.62;36.26;68.48;;
76261;Laerm;65076;52.362;6.588;2023-10-08T08:00:03;50.45;35.56;66.86;;
76261;Laerm;65076;52.362;6.588;2023-10-08T08:12:49;46.01;37.43;57.77;;
76261;Laerm;65076;52.362;6.588;2023-10-08T08:18:01;51.80;37.18;64.69;;
76261;Laerm;65076;52.362;6.588;2023-10-08T08:23:03;48.01;36.48;61.60;;
76261;Laerm;65076;52.362;6.588;2023-10-08T08:25:42;54.31;36.57;67.51;;
76261;Laerm;65076;52.362;6.588;2023-10-08T08:28:25;50.17;37.01;63.52;;
76261;Laerm;65076;52.362;6.588;2023-10-08T08:33:29;58.18;35.90;67.99;;
76261;Laerm;65076;52.362;6.588;2023-10-08T08:38:48;58.33;35.33;75.92;;
76261;Laerm;65076;52.362;6.588;2023-10-08T08:41:22;57.40;35.70;73.87;;
76261;Laerm;65076;52.362;6.588;2023-10-08T08:49:02;52.13;37.76;61.85;;
76261;Laerm;65076;52.362;6.588;2023-10-08T08:54:06;53.42;36.35;67.07;;
76261;Laerm;65076;52.362;6.588;2023-10-08T09:04:10;50.51;37.92;62.67;;
76261;Laerm;65076;52.362;6.588;2023-10-08T09:09:16;56.89;40.17;71.93;;
76261;Laerm;65076;52.362;6.588;2023-10-08T09:17:01;51.20;37.60;64.61;;
76261;Laerm;65076;52.362;6.588;2023-10-08T09:22:07;57.81;41.86;72.11;;
76261;Laerm;65076;52.362;6.588;2023-10-08T09:27:14;54.45;38.59;67.35;;
76261;Laerm;65076;52.362;6.588;2023-10-08T09:29:48;59.23;37.28;72.01;;
76261;Laerm;65076;52.362;6.588;2023-10-08T09:37:28;57.26;41.09;74.36;;
76261;Laerm;65076;52.362;6.588;2023-10-08T09:45:05;46.35;36.85;60.64;;
76261;Laerm;65076;52.362;6.588;2023-10-08T09:55:10;53.59;38.59;67.54;;
76261;Laerm;65076;52.362;6.588;2023-10-08T10:00:13;54.39;37.16;70.89;;
76261;Laerm;65076;52.362;6.588;2023-10-08T10:07:47;65.72;38.95;76.01;;
76261;Laerm;65076;52.362;6.588;2023-10-08T10:12:58;56.53;39.12;72.09;;
76261;Laerm;65076;52.362;6.588;2023-10-08T10:20:34;57.15;41.01;72.62;;
76261;Laerm;65076;52.362;6.588;2023-10-08T10:23:37;54.03;38.80;68.42;;
76261;Laerm;65076;52.362;6.588;2023-10-08T10:26:34;54.84;41.92;64.74;;
76261;Laerm;65076;52.362;6.588;2023-10-08T10:34:08;52.03;35.98;63.88;;
76261;Laerm;65076;52.362;6.588;2023-10-08T10:41:50;59.89;40.19;75.18;;
76261;Laerm;65076;52.362;6.588;2023-10-08T10:46:54;53.46;37.52;65.83;;
76261;Laerm;65076;52.362;6.588;2023-10-08T10:49:49;51.51;36.38;64.37;;
76261;Laerm;65076;52.362;6.588;2023-10-08T10:55:24;55.52;38.92;72.94;;
76261;Laerm;65076;52.362;6.588;2023-10-08T10:58:08;51.99;40.39;60.79;;
76261;Laerm;65076;52.362;6.588;2023-10-08T11:08:31;57.65;36.81;74.30;;
76261;Laerm;65076;52.362;6.588;2023-10-08T11:13:40;52.97;36.26;67.05;;
76261;Laerm;65076;52.362;6.588;2023-10-08T11:18:46;53.82;38.10;62.75;;
76261;Laerm;65076;52.362;6.588;2023-10-08T11:23:51;52.07;38.51;71.83;;
76261;Laerm;65076;52.362;6.588;2023-10-08T11:31:31;51.92;36.30;64.66;;
76261;Laerm;65076;52.362;6.588;2023-10-08T11:36:37;48.81;38.50;64.74;;
76261;Laerm;65076;52.362;6.588;2023-10-08T11:41:56;58.88;40.66;74.34;;
76261;Laerm;65076;52.362;6.588;2023-10-08T11:47:01;49.80;35.28;61.82;;
76261;Laerm;65076;52.362;6.588;2023-10-08T11:54:45;53.16;39.69;70.77;;
76261;Laerm;65076;52.362;6.588;2023-10-08T11:59:49;52.75;39.76;66.03;;
76261;Laerm;65076;52.362;6.588;2023-10-08T12:04:54;50.48;37.64;62.00;;
76261;Laerm;65076;52.362;6.588;2023-10-08T12:09:57;69.59;41.86;84.94;;
76261;Laerm;65076;52.362;6.588;2023-10-08T12:14:57;56.85;41.46;73.61;;
76261;Laerm;65076;52.362;6.588;2023-10-08T12:17:30;49.35;38.15;61.22;;
76261;Laerm;65076;52.362;6.588;2023-10-08T12:22:39;50.81;40.31;64.10;;
76261;Laerm;65076;52.362;6.588;2023-10-08T12:37:48;60.66;38.22;73.64;;
76261;Laerm;65076;52.362;6.588;2023-10-08T12:42:52;50.86;38.21;61.40;;
76261;Laerm;65076;52.362;6.588;2023-10-08T12:45:27;58.02;37.42;72.15;;
76261;Laerm;65076;52.362;6.588;2023-10-08T12:53:03;53.57;38.98;70.01;;
76261;Laerm;65076;52.362;6.588;2023-10-08T12:58:02;50.33;38.48;64.92;;
76261;Laerm;65076;52.362;6.588;2023-10-08T13:00:52;55.02;37.86;72.32;;
76261;Laerm;65076;52.362;6.588;2023-10-08T13:05:55;53.24;40.31;67.33;;
76261;Laerm;65076;52.362;6.588;2023-10-08T13:08:34;58.95;40.43;72.00;;
76261;Laerm;65076;52.362;6.588;2023-10-08T13:18:39;53.64;36.72;62.85;;
76261;Laerm;65076;52.362;6.588;2023-10-08T13:23:47;54.68;38.90;65.04;;
76261;Laerm;65076;52.362;6.588;2023-10-08T13:28:49;53.27;37.92;64.76;;
76261;Laerm;65076;52.362;6.588;2023-10-08T13:31:23;62.38;40.27;77.52;;
76261;Laerm;65076;52.362;6.588;2023-10-08T13:38:57;52.86;37.63;67.18;;
76261;Laerm;65076;52.362;6.588;2023-10-08T13:41:30;58.37;38.99;75.88;;
76261;Laerm;65076;52.362;6.588;2023-10-08T13:44:07;48.31;35.62;59.20;;
76261;Laerm;65076;52.362;6.588;2023-10-08T13:51:40;55.13;40.38;71.32;;
76261;Laerm;65076;52.362;6.588;2023-10-08T13:59:18;52.49;41.22;66.19;;
76261;Laerm;65076;52.362;6.588;2023-10-08T14:04:22;49.77;38.95;62.55;;
76261;Laerm;65076;52.362;6.588;2023-10-08T14:07:01;51.39;36.87;62.21;;
76261;Laerm;65076;52.362;6.588;2023-10-08T14:14:33;54.44;41.97;69.98;;
76261;Laerm;65076;52.362;6.588;2023-10-08T14:19:37;56.25;39.61;73.06;;
76261;Laerm;65076;52.362;6.588;2023-10-08T14:24:44;57.70;35.46;71.08;;
76261;Laerm;65076;52.362;6.588;2023-10-08T14:27:27;53.92;38.84;69.44;;
76261;Laerm;65076;52.362;6.588;2023-10-08T14:35:06;51.65;36.39;60.68;;
76261;Laerm;65076;52.362;6.588;2023-10-08T14:40:18;59.48;35.28;78.04;;
76261;Laerm;65076;52.362;6.588;2023-10-08T14:45:35;54.45;35.95;64.42;;
76261;Laerm;65076;52.362;6.588;2023-10-08T14:50:40;58.71;37.99;73.15;;
76261;Laerm;65076;52.362;6.588;2023-10-08T14:58:09;52.61;37.45;77.94;;
76261;Laerm;65076;52.362;6.588;2023-10-08T15:03:17;53.18;36.62;67.37;;
76261;Laerm;65076;52.362;6.588;2023-10-08T15:05:55;50.07;38.04;64.03;;
76261;Laerm;65076;52.362;6.588;2023-10-08T15:13:30;50.20;38.36;65.72;;
76261;Laerm;65076;52.362;6.588;2023-10-08T15:18:33;49.78;36.05;62.90;;
76261;Laerm;65076;52.362;6.588;2023-10-08T15:21:14;55.32;40.92;69.36;;
76261;Laerm;65076;52.362;6.588;2023-10-08T15:28:53;49.32;36.79;59.37;;
76261;Laerm;65076;52.362;6.588;2023-10-08T15:33:59;52.32;35.55;65.80;;
76261;Laerm;65076;52.362;6.588;2023-10-08T15:39:03;57.25;41.39;72.38;;
76261;Laerm;65076;52.362;6.588;2023-10-08T15:44:09;48.71;37.19;61.93;;
76261;Laerm;65076;52.362;6.588;2023-10-08T15:51:42;66.18;41.00;78.95;;
76261;Laerm;65076;52.362;6.588;2023-10-08T15:56:46;49.19;37.09;61.34;;
76261;Laerm;65076;52.362;6.588;2023-10-08T16:04:20;51.45;36.04;61.86;;
76261;Laerm;65076;52.362;6.588;2023-10-08T16:06:55;65.64;41.38;75.77;;
76261;Laerm;65076;52.362;6.588;2023-10-08T16:09:27;61.00;38.80;75.03;;
76261;Laerm;65076;52.362;6.588;2023-10-08T16:19:31;59.71;39.23;71.91;;
76261;Laerm;65076;52.362;6.588;2023-10-08T16:27:14;51.82;39.29;62.34;;
76261;Laerm;65076;52.362;6.588;2023-10-08T16:34:52;53.63;39.02;67.31;;
76261;Laerm;65076;52.362;6.588;2023-10-08T16:39:56;50.47;37.82;62.78;;
76261;Laerm;65076;52.362;6.588;2023-10-08T16:47:34;50.83;37.87;62.43;;
76261;Laerm;65076;52.362;6.588;2023-10-08T16:55:09;52.89;39.38;69.99;;
76261;Laerm;65076;52.362;6.588;2023-10-08T16:57:44;48.30;37.93;67.54;;
76261;Laerm;65076;52.362;6.588;2023-10-08T17:02:48;49.16;38.49;61.99;;
76261;Laerm;65076;52.362;6.588;2023-10-08T17:05:23;48.08;38.01;59.49;;
76261;Laerm;65076;52.362;6.588;2023-10-08T17:10:30;58.60;37.44;73.27;;
76261;Laerm;65076;52.362;6.588;2023-10-08T17:18:02;48.72;37.16;62.94;;
76261;Laerm;65076;52.362;6.588;2023-10-08T17:20:39;61.93;40.29;75.37;;
76261;Laerm;65076;52.362;6.588;2023-10-08T17:25:53;53.59;37.75;67.13;;
76261;Laerm;65076;52.362;6.588;2023-10-08T17:31:04;49.44;37.61;62.36;;
76261;Laerm;65076;52.362;6.588;2023-10-08T17:33:41;41.16;36.94;49.84;;
76261;Laerm;65076;52.362;6.588;2023-10-08T17:36:20;44.51;36.50;54.72;;
76261;Laerm;65076;52.362;6.588;2023-10-08T17:44:05;50.04;36.78;65.62;;
76261;Laerm;65076;52.362;6.588;2023-10-08T17:56:30;52.04;37.43;66.87;;
76261;Laerm;65076;52.362;6.588;2023-10-08T17:59:07;57.16;37.46;70.64;;
76261;Laerm;65076;52.362;6.588;2023-10-08T18:06:45;60.96;36.50;80.31;;
76261;Laerm;65076;52.362;6.588;2023-10-08T18:11:50;50.17;36.96;64.18;;
76261;Laerm;65076;52.362;6.588;2023-10-08T18:16:54;53.61;37.35;65.41;;
76261;Laerm;65076;52.362;6.588;2023-10-08T18:21:59;60.48;36.83;74.93;;
76261;Laerm;65076;52.362;6.588;2023-10-08T18:26:59;45.08;36.70;59.27;;
76261;Laerm;65076;52.362;6.588;2023-10-08T18:29:33;45.42;36.04;58.30;;
76261;Laerm;65076;52.362;6.588;2023-10-08T18:34:33;51.14;37.63;63.19;;
76261;Laerm;65076;52.362;6.588;2023-10-08T18:39:44;61.56;38.43;76.14;;
76261;Laerm;65076;52.362;6.588;2023-10-08T18:42:22;49.68;36.15;63.02;;
76261;Laerm;65076;52.362;6.588;2023-10-08T18:47:24;44.37;36.14;58.38;;
76261;Laerm;65076;52.362;6.588;2023-10-08T18:57:29;42.37;36.51;53.71;;
76261;Laerm;65076;52.362;6.588;2023-10-08T19:05:00;41.51;36.42;54.27;;
76261;Laerm;65076;52.362;6.588;2023-10-08T19:12:42;49.48;36.53;65.99;;
76261;Laerm;65076;52.362;6.588;2023-10-08T19:15:19;48.06;36.34;61.36;;
76261;Laerm;65076;52.362;6.588;2023-10-08T19:25:19;51.04;37.06;65.34;;
76261;Laerm;65076;52.362;6.588;2023-10-08T19:30:25;49.49;36.58;63.70;;
76261;Laerm;65076;52.362;6.588;2023-10-08T19:35:32;46.19;35.53;62.86;;
76261;Laerm;65076;52.362;6.588;2023-10-08T19:45:40;68.63;35.93;81.13;;
76261;Laerm;65076;52.362;6.588;2023-10-08T19:50:46;56.67;36.14;72.25;;
76261;Laerm;65076;52.362;6.588;2023-10-08T19:55:50;47.59;37.26;64.51;;
76261;Laerm;65076;52.362;6.588;2023-10-08T20:00:54;54.94;35.97;74.65;;
76261;Laerm;65076;52.362;6.588;2023-10-08T20:05:59;45.42;35.46;64.33;;
76261;Laerm;65076;52.362;6.588;2023-10-08T20:11:01;55.68;36.01;73.38;;
76261;Laerm;65076;52.362;6.588;2023-10-08T20:13:35;49.43;36.04;66.92;;
76261;Laerm;65076;52.362;6.588;2023-10-08T20:16:15;45.82;35.59;60.49;;
76261;Laerm;65076;52.362;6.588;2023-10-08T20:21:21;43.35;36.05;57.04;;
76261;Laerm;65076;52.362;6.588;2023-10-08T20:26:23;50.75;36.89;65.96;;
76261;Laerm;65076;52.362;6.588;2023-10-08T20:29:01;41.24;36.56;51.55;;
76261;Laerm;65076;52.362;6.588;2023-10-08T20:36:41;40.42;36.03;48.89;;
76261;Laerm;65076;52.362;6.588;2023-10-08T20:44:14;46.42;35.95;62.75;;
76261;Laerm;65076;52.362;6.588;2023-10-08T20:46:47;43.90;35.17;54.70;;
76261;Laerm;65076;52.362;6.588;2023-10-08T20:51:55;63.96;37.01;77.87;;
76261;Laerm;65076;52.362;6.588;2023-10-08T20:59:31;50.67;37.84;66.67;;
76261;Laerm;65076;52.362;6.588;2023-10-08T21:07:36;40.17;35.79;47.22;;
76261;Laerm;65076;52.362;6.588;2023-10-08T21:12:50;56.87;35.43;73.45;;
76261;Laerm;65076;52.362;6.588;2023-10-08T21:20:21;47.07;35.93;64.12;;
76261;Laerm;65076;52.362;6.588;2023-10-08T21:25:26;51.39;34.89;69.11;;
76261;Laerm;65076;52.362;6.588;2023-10-08T21:30:31;47.75;35.78;59.32;;
76261;Laerm;65076;52.362;6.588;2023-10-08T21:38:07;56.43;35.23;75.40;;
76261;Laerm;65076;52.362;6.588;2023-10-08T21:43:12;37.86;34.80;45.59;;
76261;Laerm;65076;52.362;6.588;2023-10-08T21:48:16;36.41;33.93;39.68;;
76261;Laerm;65076;52.362;6.588;2023-10-08T21:50:51;54.36;35.90;72.57;;
76261;Laerm;65076;52.362;6.588;2023-10-08T21:53:32;61.22;34.95;80.76;;
76261;Laerm;65076;52.362;6.588;2023-10-08T21:58:41;39.95;38.02;42.35;;
76261;Laerm;65076;52.362;6.588;2023-10-08T22:03:47;42.80;37.63;54.57;;
76261;Laerm;65076;52.362;6.588;2023-10-08T22:08:47;57.76;37.70;75.91;;
76261;Laerm;65076;52.362;6.588;2023-10-08T22:11:20;39.59;37.65;42.31;;
76261;Laerm;65076;52.362;6.588;2023-10-08T22:21:28;55.17;37.95;72.15;;
76261;Laerm;65076;52.362;6.588;2023-10-08T22:26:33;51.27;38.71;66.40;;
76261;Laerm;65076;52.362;6.588;2023-10-08T22:29:09;42.68;37.55;61.23;;
76261;Laerm;65076;52.362;6.588;2023-10-08T22:36:48;42.52;36.98;55.32;;
76261;Laerm;65076;52.362;6.588;2023-10-08T22:44:32;39.24;36.74;46.92;;
76261;Laerm;65076;52.362;6.588;2023-10-08T22:47:04;40.36;37.70;57.22;;
76261;Laerm;65076;52.362;6.588;2023-10-08T22:54:47;47.15;37.57;65.38;;
76261;Laerm;65076;52.362;6.588;2023-10-08T22:59:48;41.11;37.25;48.13;;
76261;Laerm;65076;52.362;6.588;2023-10-08T23:04:49;45.74;42.15;58.18;;
76261;Laerm;65076;52.362;6.588;2023-10-08T23:07:25;44.50;42.63;46.65;;
76261;Laerm;65076;52.362;6.588;2023-10-08T23:12:28;45.51;41.21;56.77;;
76261;Laerm;65076;52.362;6.588;2023-10-08T23:19:58;49.30;43.17;57.59;;
76261;Laerm;65076;52.362;6.588;2023-10-08T23:22:31;51.09;33.79;58.70;;
76261;Laerm;65076;52.362;6.588;2023-10-08T23:30:10;35.56;33.42;42.42;;
76261;Laerm;65076;52.362;6.588;2023-10-08T23:35:13;35.38;32.78;38.75;;
76261;Laerm;65076;52.362;6.588;2023-10-08T23:37:47;34.65;33.10;36.76;;
76261;Laerm;65076;52.362;6.588;2023-10-08T23:45:33;35.68;33.61;39.07;;
76261;Laerm;65076;52.362;6.588;2023-10-08T23:50:47;35.10;33.08;37.85;;
76261;Laerm;65076;52.362;6.588;2023-10-08T23:58:20;35.12;32.87;39.30;;
